Time;durP1;ratioP1;P1;durP2;ratioP2;P2;SDS_P1;SDS_P2;PMS_P1;PMS_P2;Temp;Humidity;BMP_temperature;BMP_pressure;BME280_temperature;BME280_humidity;BME280_pressure;Samples;Min_cycle;Max_cycle;Signal;HPM_P1;HPM_P2
2022/09/14 00:01:58;;;;;;;7.25;1.65;;;17.70;99.90;;;;;;5033317;28;20065;-62
2022/09/14 00:04:24;;;;;;;9.70;1.52;;;17.30;99.90;;;;;;5032499;28;20095;-62
2022/09/14 00:06:50;;;;;;;7.57;1.30;;;17.40;99.90;;;;;;5033901;28;20121;-62
2022/09/14 00:09:22;;;;;;;9.38;1.60;;;17.40;99.90;;;;;;5032964;28;20081;-62
2022/09/14 00:11:48;;;;;;;11.52;2.15;;;17.40;99.90;;;;;;5031894;28;20054;-62
2022/09/14 00:14:14;;;;;;;4.03;1.40;;;17.40;99.90;;;;;;5034150;28;20042;-63
2022/09/14 00:16:41;;;;;;;9.65;1.40;;;17.50;99.90;;;;;;5033859;28;20067;-62
2022/09/14 00:19:19;;;;;;;7.43;1.38;;;17.60;99.90;;;;;;5015861;28;20108;-62
2022/09/14 00:21:49;;;;;;;5.72;1.13;;;17.50;99.90;;;;;;5032245;28;20077;-62
2022/09/14 00:24:15;;;;;;;5.85;1.38;;;17.60;99.90;;;;;;5033294;28;20029;-63
2022/09/14 00:26:40;;;;;;;5.00;1.10;;;17.60;99.90;;;;;;5030890;28;20107;-63
2022/09/14 00:29:06;;;;;;;6.45;1.60;;;17.60;99.90;;;;;;5032984;28;20403;-62
2022/09/14 00:31:34;;;;;;;6.20;0.80;;;17.70;99.90;;;;;;5032700;28;20029;-62
2022/09/14 00:34:01;;;;;;;3.53;1.30;;;17.70;99.90;;;;;;5031985;28;20242;-62
2022/09/14 00:36:28;;;;;;;5.32;1.30;;;17.80;99.90;;;;;;5033147;28;20033;-62
2022/09/14 00:38:59;;;;;;;4.95;1.15;;;17.80;99.90;;;;;;5033300;28;20052;-62
2022/09/14 00:41:31;;;;;;;6.07;1.13;;;17.90;99.90;;;;;;5032020;28;20072;-63
2022/09/14 00:44:04;;;;;;;3.95;1.15;;;17.80;99.90;;;;;;5014311;28;20430;-62
2022/09/14 00:46:35;;;;;;;6.45;1.20;;;17.80;99.90;;;;;;5033041;28;20025;-62
2022/09/14 00:49:04;;;;;;;8.60;1.13;;;17.80;99.90;;;;;;5024062;28;20056;-63
2022/09/14 00:51:32;;;;;;;4.43;1.17;;;17.80;99.90;;;;;;5032290;28;20037;-62
2022/09/14 00:54:01;;;;;;;4.07;1.10;;;17.80;99.90;;;;;;5015545;28;20077;-62
2022/09/14 00:56:27;;;;;;;5.40;1.10;;;17.80;99.90;;;;;;5032071;28;20029;-62
2022/09/14 00:58:53;;;;;;;4.60;0.85;;;17.80;99.90;;;;;;5032656;28;20049;-63
2022/09/14 01:01:19;;;;;;;4.70;1.10;;;17.90;99.90;;;;;;5032116;28;20407;-62
2022/09/14 01:03:45;;;;;;;4.90;1.20;;;17.90;99.90;;;;;;5031495;28;20056;-62
2022/09/14 01:06:39;;;;;;;4.43;1.00;;;17.80;99.90;;;;;;5031651;28;20045;-62
2022/09/14 01:09:34;;;;;;;5.53;0.90;;;17.80;99.90;;;;;;5022963;28;20053;-62
2022/09/14 01:12:13;;;;;;;5.40;1.10;;;17.80;99.90;;;;;;5028672;28;20049;-62
2022/09/14 01:15:02;;;;;;;4.20;1.10;;;17.70;99.90;;;;;;5032568;28;20029;-62
2022/09/14 01:17:32;;;;;;;6.97;1.20;;;17.60;99.90;;;;;;5031546;28;20037;-62
2022/09/14 01:19:58;;;;;;;4.45;0.82;;;18.00;99.90;;;;;;5030402;28;20499;-63
2022/09/14 01:22:33;;;;;;;4.25;1.10;;;17.50;99.90;;;;;;5032182;28;20044;-62
2022/09/14 01:25:54;;;;;;;4.45;1.08;;;17.40;99.90;;;;;;5032091;28;20064;-62
2022/09/14 01:28:41;;;;;;;4.95;0.90;;;17.40;99.90;;;;;;4902022;29;20066;-62
2022/09/14 01:31:16;;;;;;;5.65;1.05;;;17.30;99.90;;;;;;5031088;28;20055;-62
2022/09/14 01:33:50;;;;;;;6.13;1.10;;;17.40;99.90;;;;;;5030822;28;20037;-62
2022/09/14 01:36:17;;;;;;;8.57;1.00;;;17.30;99.90;;;;;;5031990;28;20291;-62
2022/09/14 01:38:50;;;;;;;4.97;1.05;;;17.30;99.90;;;;;;5032021;28;20047;-62
2022/09/14 01:41:19;;;;;;;3.67;0.88;;;17.40;99.90;;;;;;5032587;28;20511;-62
2022/09/14 01:43:56;;;;;;;1.88;0.70;;;17.40;99.90;;;;;;5030775;28;20044;-62
2022/09/14 01:46:28;;;;;;;4.22;1.27;;;17.50;99.90;;;;;;5019281;28;20068;-62
2022/09/14 01:49:18;;;;;;;3.42;1.13;;;17.40;99.90;;;;;;5025396;28;20049;-63
2022/09/14 01:51:59;;;;;;;2.42;0.68;;;17.40;99.90;;;;;;5018908;28;20030;-62
2022/09/14 01:54:36;;;;;;;3.53;0.90;;;17.30;99.90;;;;;;5029204;28;20037;-62
2022/09/14 01:57:13;;;;;;;11.20;1.15;;;17.30;99.90;;;;;;5013911;28;20037;-62
2022/09/14 01:59:42;;;;;;;7.05;0.85;;;17.30;99.90;;;;;;5030663;28;20029;-62
2022/09/14 02:02:20;;;;;;;6.55;0.98;;;17.30;99.90;;;;;;5030827;28;20070;-62
2022/09/14 02:04:56;;;;;;;4.93;0.90;;;17.30;99.90;;;;;;5031035;28;20036;-62
2022/09/14 02:07:22;;;;;;;7.85;0.80;;;17.40;99.90;;;;;;5014235;28;20034;-62
2022/09/14 02:09:51;;;;;;;6.75;1.00;;;17.30;99.90;;;;;;5031624;28;20064;-62
2022/09/14 02:12:17;;;;;;;5.53;1.40;;;17.30;99.90;;;;;;5029856;28;20045;-62
2022/09/14 02:14:44;;;;;;;6.82;1.38;;;17.20;99.90;;;;;;5030408;28;20034;-62
2022/09/14 02:17:11;;;;;;;4.43;1.25;;;17.10;99.90;;;;;;5029726;28;20030;-62
2022/09/14 02:19:42;;;;;;;4.38;1.23;;;17.10;99.90;;;;;;5013782;28;20045;-63
2022/09/14 02:22:08;;;;;;;7.25;1.60;;;17.10;99.90;;;;;;5031244;28;20037;-62
2022/09/14 02:24:34;;;;;;;6.60;1.83;;;17.00;99.90;;;;;;5031258;28;20044;-62
2022/09/14 02:27:01;;;;;;;6.30;1.50;;;17.00;99.90;;;;;;5030863;28;20041;-62
2022/09/14 02:29:26;;;;;;;4.57;1.70;;;16.90;99.90;;;;;;5030222;28;20041;-62
2022/09/14 02:32:19;;;;;;;3.25;1.50;;;16.80;99.90;;;;;;4999924;28;20487;-62
2022/09/14 02:35:00;;;;;;;5.50;1.60;;;16.90;99.90;;;;;;5030909;28;20045;-62
2022/09/14 02:37:32;;;;;;;5.72;1.55;;;17.00;99.90;;;;;;5012628;28;20029;-62
2022/09/14 02:40:17;;;;;;;4.82;1.83;;;16.90;99.90;;;;;;5030960;28;20045;-63
2022/09/14 02:42:53;;;;;;;5.35;1.95;;;16.90;99.90;;;;;;5013704;28;20120;-62
2022/09/14 02:45:21;;;;;;;3.35;1.70;;;17.10;99.90;;;;;;5029615;28;20411;-62
2022/09/14 02:48:07;;;;;;;4.90;1.80;;;17.00;99.90;;;;;;5029550;28;20454;-62
2022/09/14 02:50:55;;;;;;;3.53;1.80;;;17.20;99.90;;;;;;5028226;28;20041;-63
2022/09/14 02:53:27;;;;;;;13.10;1.75;;;17.20;99.90;;;;;;5029309;28;20033;-62
2022/09/14 02:56:12;;;;;;;7.60;1.70;;;17.10;99.90;;;;;;5030771;28;20441;-62
2022/09/14 02:58:41;;;;;;;7.13;1.65;;;17.20;99.90;;;;;;5031175;28;20414;-63
2022/09/14 03:01:09;;;;;;;7.53;1.70;;;17.20;99.90;;;;;;5029902;28;20123;-62
2022/09/14 03:03:35;;;;;;;4.95;1.70;;;17.20;99.90;;;;;;5027349;28;20034;-62
2022/09/14 03:06:00;;;;;;;5.90;1.65;;;17.20;99.90;;;;;;5030898;28;20387;-62
2022/09/14 03:08:27;;;;;;;8.18;1.70;;;17.20;99.90;;;;;;5034113;28;20458;-62
2022/09/14 03:10:53;;;;;;;7.40;1.42;;;17.30;99.90;;;;;;5029188;28;20045;-62
2022/09/14 03:13:19;;;;;;;12.75;2.03;;;17.10;99.90;;;;;;5033272;28;20033;-63
2022/09/14 03:15:44;;;;;;;4.50;1.60;;;17.20;99.90;;;;;;5034677;28;20029;-62
2022/09/14 03:18:10;;;;;;;4.82;1.42;;;17.10;99.90;;;;;;5034007;28;20044;-62
2022/09/14 03:20:36;;;;;;;11.90;1.73;;;17.10;99.90;;;;;;5034646;28;20598;-62
2022/09/14 03:23:03;;;;;;;7.60;1.60;;;17.10;99.90;;;;;;5034471;28;20124;-62
2022/09/14 03:25:29;;;;;;;5.28;1.60;;;17.20;99.90;;;;;;5027737;28;20093;-62
2022/09/14 03:27:57;;;;;;;6.30;1.92;;;17.20;99.90;;;;;;5034419;28;20041;-62
2022/09/14 03:30:24;;;;;;;6.22;2.40;;;17.30;99.90;;;;;;5034490;28;20033;-62
2022/09/14 03:32:49;;;;;;;5.03;1.38;;;17.20;99.90;;;;;;5032422;28;20065;-63
2022/09/14 03:35:16;;;;;;;4.53;1.50;;;17.20;99.90;;;;;;5033397;28;20455;-62
2022/09/14 03:37:43;;;;;;;7.80;1.20;;;17.40;99.90;;;;;;5034840;28;20044;-63
2022/09/14 03:40:10;;;;;;;6.50;1.52;;;17.30;99.90;;;;;;5032218;28;20041;-62
2022/09/14 03:42:40;;;;;;;2.80;1.00;;;17.40;99.90;;;;;;5032636;28;20033;-62
2022/09/14 03:45:06;;;;;;;8.85;1.05;;;17.40;99.90;;;;;;5033851;28;20041;-62
2022/09/14 03:47:32;;;;;;;3.67;1.15;;;17.40;99.90;;;;;;5034264;28;20033;-62
2022/09/14 03:49:57;;;;;;;4.15;1.33;;;17.50;99.90;;;;;;5033017;28;20142;-63
2022/09/14 03:52:23;;;;;;;6.63;1.20;;;17.50;99.90;;;;;;5033880;28;20064;-63
2022/09/14 03:54:49;;;;;;;2.78;0.90;;;17.60;99.90;;;;;;5033278;28;20041;-63
2022/09/14 03:57:15;;;;;;;2.28;1.40;;;17.50;99.90;;;;;;5034125;28;20038;-62
2022/09/14 03:59:40;;;;;;;3.35;1.38;;;17.50;99.90;;;;;;5033215;28;20503;-62
2022/09/14 04:02:06;;;;;;;2.70;1.08;;;17.50;99.90;;;;;;5031868;28;20124;-62
2022/09/14 04:04:32;;;;;;;3.25;1.08;;;17.60;99.90;;;;;;5032666;28;20030;-62
2022/09/14 04:06:57;;;;;;;7.05;1.45;;;17.50;99.90;;;;;;5034028;28;20040;-62
2022/09/14 04:09:23;;;;;;;4.97;1.23;;;17.60;99.90;;;;;;5033098;28;20576;-63
2022/09/14 04:11:49;;;;;;;5.10;1.40;;;17.60;99.90;;;;;;5033900;28;20107;-63
2022/09/14 04:14:15;;;;;;;7.53;1.83;;;17.60;99.90;;;;;;5033299;28;20037;-62
2022/09/14 04:16:43;;;;;;;6.15;1.88;;;17.40;99.90;;;;;;5033596;28;20034;-62
2022/09/14 04:19:10;;;;;;;5.00;1.70;;;17.30;99.90;;;;;;5032785;28;20041;-62
2022/09/14 04:21:36;;;;;;;6.63;1.90;;;17.20;99.90;;;;;;5032483;28;20502;-62
2022/09/14 04:24:02;;;;;;;9.07;2.03;;;17.10;99.90;;;;;;5032585;28;20037;-63
2022/09/14 04:26:29;;;;;;;11.68;1.90;;;17.10;99.90;;;;;;5031424;28;20042;-62
2022/09/14 04:28:55;;;;;;;6.90;2.22;;;17.10;99.90;;;;;;5033317;28;20495;-63
2022/09/14 04:31:21;;;;;;;9.70;2.00;;;17.10;99.90;;;;;;5032362;28;20116;-62
2022/09/14 04:33:49;;;;;;;5.82;1.88;;;17.10;99.90;;;;;;5032657;28;20033;-63
2022/09/14 04:36:20;;;;;;;7.53;2.15;;;17.10;99.90;;;;;;5033211;28;20068;-62
2022/09/14 04:38:45;;;;;;;5.05;1.95;;;17.10;99.90;;;;;;5032911;28;20053;-63
2022/09/14 04:41:14;;;;;;;4.65;1.70;;;17.20;99.90;;;;;;5029006;28;20144;-63
2022/09/14 04:43:40;;;;;;;7.15;1.55;;;17.20;99.90;;;;;;5015155;28;20087;-62
2022/09/14 04:46:10;;;;;;;4.47;1.20;;;17.10;99.90;;;;;;5031704;28;20057;-63
2022/09/14 04:48:36;;;;;;;5.70;1.42;;;17.20;99.90;;;;;;5032680;28;20522;-63
2022/09/14 04:51:12;;;;;;;5.80;1.45;;;17.20;99.90;;;;;;5032906;28;20120;-62
2022/09/14 04:53:39;;;;;;;2.78;1.20;;;17.30;99.90;;;;;;5012955;28;20092;-62
2022/09/14 04:56:07;;;;;;;6.72;1.02;;;17.40;99.90;;;;;;5032506;28;20068;-63
2022/09/14 04:58:33;;;;;;;8.80;1.20;;;17.50;99.90;;;;;;5032591;28;20513;-63
2022/09/14 05:01:13;;;;;;;6.47;1.30;;;17.40;99.90;;;;;;5031165;28;20464;-62
2022/09/14 05:03:39;;;;;;;6.20;1.33;;;17.60;99.90;;;;;;5031581;28;20060;-63
2022/09/14 05:06:11;;;;;;;16.33;1.65;;;17.90;99.90;;;;;;5031001;28;20495;-63
2022/09/14 05:08:37;;;;;;;7.78;1.20;;;17.70;99.90;;;;;;5032379;28;20049;-62
2022/09/14 05:11:07;;;;;;;5.13;1.50;;;17.90;99.90;;;;;;5031971;28;20057;-62
2022/09/14 05:13:34;;;;;;;7.28;1.88;;;17.70;99.90;;;;;;5030912;28;20037;-63
2022/09/14 05:16:13;;;;;;;6.28;2.00;;;17.50;99.90;;;;;;5030037;28;20056;-62
2022/09/14 05:18:38;;;;;;;7.03;1.80;;;17.30;99.90;;;;;;5031340;28;20513;-63
2022/09/14 05:21:06;;;;;;;7.03;1.92;;;17.30;99.90;;;;;;5011953;28;20033;-63
2022/09/14 05:23:32;;;;;;;7.07;2.00;;;17.30;99.90;;;;;;5030707;28;20191;-63
2022/09/14 05:25:58;;;;;;;6.25;2.10;;;17.20;99.90;;;;;;5030656;28;20128;-63
2022/09/14 05:28:25;;;;;;;4.78;2.53;;;17.30;99.90;;;;;;5012917;28;20084;-63
2022/09/14 05:30:51;;;;;;;5.07;2.22;;;17.30;99.90;;;;;;5030784;28;20064;-63
2022/09/14 05:33:17;;;;;;;8.57;2.30;;;17.30;99.90;;;;;;5028178;28;20043;-63
2022/09/14 05:35:43;;;;;;;7.55;2.40;;;17.60;99.90;;;;;;5026843;28;20188;-63
2022/09/14 05:38:09;;;;;;;5.18;2.20;;;17.20;99.90;;;;;;5032655;28;20123;-62
2022/09/14 05:40:34;;;;;;;6.97;2.22;;;17.20;99.90;;;;;;5025541;28;20377;-63
2022/09/14 05:43:00;;;;;;;6.35;2.25;;;17.30;99.90;;;;;;5024271;28;20037;-63
2022/09/14 05:45:25;;;;;;;7.65;2.38;;;17.30;99.90;;;;;;5028200;28;20053;-63
2022/09/14 05:47:51;;;;;;;3.95;2.30;;;17.10;99.90;;;;;;5029520;28;20042;-62
2022/09/14 05:50:17;;;;;;;9.07;2.30;;;17.30;99.90;;;;;;5031537;28;20049;-62
2022/09/14 05:52:42;;;;;;;6.40;2.30;;;17.30;99.90;;;;;;5032166;28;20029;-63
2022/09/14 05:55:08;;;;;;;2.47;2.10;;;17.10;99.90;;;;;;5030758;28;20041;-63
2022/09/14 05:57:33;;;;;;;8.18;2.42;;;17.30;99.90;;;;;;5029112;28;20691;-64
2022/09/14 05:59:59;;;;;;;6.95;2.55;;;17.20;99.90;;;;;;5028400;28;20041;-63
2022/09/14 06:02:24;;;;;;;7.45;2.28;;;17.20;99.90;;;;;;5027456;28;20479;-63
2022/09/14 06:04:50;;;;;;;7.90;2.50;;;17.10;99.90;;;;;;5024616;28;20065;-63
2022/09/14 06:07:16;;;;;;;6.47;2.50;;;17.20;99.90;;;;;;5027901;28;20041;-62
2022/09/14 06:09:41;;;;;;;6.40;2.55;;;17.20;99.90;;;;;;5031065;28;20042;-63
2022/09/14 06:12:07;;;;;;;6.55;2.53;;;17.20;99.90;;;;;;5026873;28;20050;-63
2022/09/14 06:14:33;;;;;;;6.10;2.78;;;17.10;99.90;;;;;;5027675;28;20112;-63
2022/09/14 06:16:59;;;;;;;6.22;2.40;;;17.10;99.90;;;;;;5027653;28;20033;-63
2022/09/14 06:19:25;;;;;;;6.90;2.88;;;17.20;99.90;;;;;;5029150;28;20132;-63
2022/09/14 06:21:50;;;;;;;6.45;2.28;;;17.10;99.90;;;;;;5013378;28;20045;-67
2022/09/14 06:24:16;;;;;;;8.10;2.80;;;17.10;99.90;;;;;;5026416;28;20495;-66
2022/09/14 06:26:43;;;;;;;6.35;2.45;;;17.10;99.90;;;;;;5026595;28;20037;-64
2022/09/14 06:29:08;;;;;;;10.43;2.83;;;17.10;99.90;;;;;;5028729;28;20052;-64
2022/09/14 06:31:34;;;;;;;6.18;2.95;;;17.40;99.90;;;;;;5024291;28;20030;-63
2022/09/14 06:34:00;;;;;;;5.97;2.47;;;17.30;99.90;;;;;;5029062;28;20041;-64
2022/09/14 06:36:27;;;;;;;10.45;2.70;;;17.40;99.90;;;;;;5028690;28;20052;-64
2022/09/14 06:38:53;;;;;;;15.48;2.92;;;17.30;99.90;;;;;;5027680;28;20446;-64
2022/09/14 06:41:25;;;;;;;11.52;2.72;;;17.50;99.90;;;;;;5024052;28;20171;-63
2022/09/14 06:43:51;;;;;;;7.82;2.60;;;17.60;99.90;;;;;;5028937;28;20030;-62
2022/09/14 06:46:26;;;;;;;12.32;2.53;;;17.60;99.90;;;;;;5036490;28;20061;-62
2022/09/14 06:49:01;;;;;;;5.45;2.78;;;17.50;99.90;;;;;;5026597;28;20065;-62
2022/09/14 06:51:34;;;;;;;13.32;2.90;;;17.70;99.90;;;;;;5029063;28;20919;-62
2022/09/14 06:54:00;;;;;;;9.55;3.13;;;17.80;99.90;;;;;;5030386;28;20033;-62
2022/09/14 06:56:28;;;;;;;7.93;3.35;;;17.80;99.90;;;;;;5017374;28;20038;-62
2022/09/14 06:58:53;;;;;;;7.88;2.97;;;17.70;99.90;;;;;;5026806;28;20037;-62
2022/09/14 07:01:20;;;;;;;4.75;2.55;;;18.00;99.90;;;;;;5029435;28;20095;-62
2022/09/14 07:03:46;;;;;;;10.20;2.90;;;18.00;99.90;;;;;;5031133;28;20491;-62
2022/09/14 07:06:15;;;;;;;3.92;2.47;;;17.80;99.90;;;;;;5027056;28;20384;-63
2022/09/14 07:08:42;;;;;;;5.88;2.83;;;18.00;99.90;;;;;;5019518;28;20065;-63
2022/09/14 07:11:09;;;;;;;10.40;2.63;;;18.10;99.90;;;;;;5025779;28;20064;-62
2022/09/14 07:13:35;;;;;;;9.50;2.35;;;18.00;99.90;;;;;;5024736;28;20033;-63
2022/09/14 07:16:02;;;;;;;9.25;2.15;;;18.20;99.90;;;;;;5024609;28;20076;-63
2022/09/14 07:18:31;;;;;;;9.48;1.90;;;18.20;99.90;;;;;;5019961;28;20406;-63
2022/09/14 07:21:04;;;;;;;7.00;1.88;;;18.30;99.90;;;;;;5025585;28;20037;-63
2022/09/14 07:23:29;;;;;;;6.78;1.98;;;18.40;99.90;;;;;;5012379;28;20076;-63
2022/09/14 07:25:59;;;;;;;7.03;1.73;;;18.40;99.90;;;;;;5027574;28;20503;-63
2022/09/14 07:28:25;;;;;;;6.97;1.73;;;18.50;99.90;;;;;;5028768;28;20072;-62
2022/09/14 07:30:50;;;;;;;8.40;1.90;;;18.60;99.90;;;;;;5029910;28;20034;-63
2022/09/14 07:33:16;;;;;;;10.18;1.98;;;18.70;99.90;;;;;;5029363;28;20078;-63
2022/09/14 07:35:41;;;;;;;9.10;1.65;;;18.80;99.90;;;;;;5035636;28;20065;-63
2022/09/14 07:38:07;;;;;;;9.57;1.85;;;19.00;99.90;;;;;;5028217;28;20077;-63
2022/09/14 07:40:32;;;;;;;8.85;1.40;;;19.10;99.90;;;;;;5036857;28;20556;-62
2022/09/14 07:43:00;;;;;;;6.68;1.42;;;19.20;99.90;;;;;;5029303;28;20069;-63
2022/09/14 07:45:26;;;;;;;5.97;1.92;;;19.30;99.90;;;;;;5025530;28;20038;-63
2022/09/14 07:47:55;;;;;;;9.32;1.80;;;19.40;99.90;;;;;;5025067;28;20038;-63
2022/09/14 07:50:20;;;;;;;9.80;1.58;;;19.30;99.90;;;;;;5005249;28;20446;-63
2022/09/14 07:52:49;;;;;;;5.38;1.38;;;19.60;99.90;;;;;;5031627;28;20037;-62
2022/09/14 07:55:15;;;;;;;7.22;1.80;;;19.70;99.90;;;;;;5022148;28;20047;-63
2022/09/14 07:57:41;;;;;;;9.10;2.30;;;19.80;99.90;;;;;;5020799;28;20522;-63
2022/09/14 08:00:07;;;;;;;6.55;1.48;;;19.90;99.90;;;;;;5031586;28;20151;-63
2022/09/14 08:02:33;;;;;;;5.20;1.45;;;19.90;99.90;;;;;;5033436;28;20037;-63
2022/09/14 08:04:59;;;;;;;7.97;1.42;;;20.00;99.90;;;;;;5027697;28;20083;-63
2022/09/14 08:07:24;;;;;;;6.93;1.30;;;20.00;99.90;;;;;;5033164;28;20120;-63
2022/09/14 08:09:50;;;;;;;5.30;1.27;;;20.00;99.90;;;;;;5029949;28;20045;-63
2022/09/14 08:12:15;;;;;;;5.00;1.38;;;20.00;99.90;;;;;;5029207;28;20053;-63
2022/09/14 08:14:41;;;;;;;8.38;1.63;;;20.00;99.90;;;;;;5031468;28;20048;-63
2022/09/14 08:17:09;;;;;;;7.53;1.52;;;20.10;99.90;;;;;;5030444;28;20053;-63
2022/09/14 08:19:34;;;;;;;6.63;1.50;;;20.30;99.90;;;;;;5006053;28;20033;-63
2022/09/14 08:22:00;;;;;;;6.32;1.40;;;20.70;99.90;;;;;;5014860;28;20126;-63
2022/09/14 08:24:26;;;;;;;5.95;1.33;;;21.10;99.90;;;;;;5013456;28;20757;-63
2022/09/14 08:26:52;;;;;;;9.35;1.70;;;21.40;99.90;;;;;;5031996;28;20168;-64
2022/09/14 08:29:18;;;;;;;13.27;1.50;;;21.70;99.90;;;;;;5029153;28;20126;-64
2022/09/14 08:31:45;;;;;;;5.70;1.63;;;21.60;99.90;;;;;;5029010;28;20038;-64
2022/09/14 08:34:12;;;;;;;6.80;1.30;;;21.70;99.90;;;;;;5028613;28;20040;-64
2022/09/14 08:36:40;;;;;;;6.43;1.38;;;21.90;99.90;;;;;;5028409;28;20042;-64
2022/09/14 08:39:08;;;;;;;5.97;1.30;;;21.80;99.90;;;;;;5031206;28;20052;-64
2022/09/14 08:41:42;;;;;;;7.65;1.30;;;21.80;99.90;;;;;;5031067;28;20033;-64
2022/09/14 08:44:25;;;;;;;11.55;1.20;;;21.90;99.90;;;;;;5029801;28;20556;-64
2022/09/14 08:46:57;;;;;;;6.82;1.85;;;22.00;99.90;;;;;;5030651;28;20085;-64
2022/09/14 08:49:44;;;;;;;8.60;1.70;;;22.40;1.00;;;;;;5028976;28;20052;-64
2022/09/14 08:52:31;;;;;;;8.48;1.60;;;22.50;1.00;;;;;;5013507;28;20037;-64
2022/09/14 08:54:59;;;;;;;6.40;1.50;;;22.20;1.00;;;;;;5030828;28;20046;-64
2022/09/14 08:57:52;;;;;;;10.85;1.63;;;21.70;75.50;;;;;;5026811;28;20553;-64
2022/09/14 09:00:22;;;;;;;3.60;0.90;;;21.60;99.90;;;;;;5033814;28;20053;-63
2022/09/14 09:03:05;;;;;;;6.93;1.30;;;21.30;99.90;;;;;;5028002;28;20040;-64
2022/09/14 09:05:34;;;;;;;5.32;1.23;;;21.10;61.20;;;;;;5029352;28;20026;-64
2022/09/14 09:08:22;;;;;;;2.78;1.08;;;21.10;46.80;;;;;;5029022;28;20562;-64
2022/09/14 09:10:51;;;;;;;3.83;1.40;;;21.00;1.00;;;;;;5028772;28;20176;-64
2022/09/14 09:13:20;;;;;;;4.00;1.20;;;21.00;1.00;;;;;;5029936;28;20029;-63
2022/09/14 09:15:51;;;;;;;7.15;1.73;;;21.10;1.00;;;;;;5029779;28;20082;-64
2022/09/14 09:18:16;;;;;;;5.55;1.50;;;21.10;1.00;;;;;;5027537;28;20053;-64
2022/09/14 09:20:50;;;;;;;12.48;1.65;;;21.20;1.00;;;;;;5029838;28;20610;-64
2022/09/14 09:23:21;;;;;;;6.72;1.75;;;21.20;1.00;;;;;;5032044;28;20037;-64
2022/09/14 09:26:09;;;;;;;15.70;1.88;;;21.20;1.00;;;;;;5028994;28;20045;-64
2022/09/14 09:28:42;;;;;;;8.35;1.60;;;21.20;99.90;;;;;;5017437;28;20045;-63
2022/09/14 09:31:11;;;;;;;8.20;1.40;;;21.10;99.90;;;;;;5035352;28;20034;-64
2022/09/14 09:33:37;;;;;;;3.88;1.10;;;20.90;99.90;;;;;;5030624;28;20048;-63
2022/09/14 09:36:07;;;;;;;7.80;1.90;;;20.80;99.90;;;;;;5028843;28;20037;-64
2022/09/14 09:38:33;;;;;;;9.82;1.65;;;20.80;94.90;;;;;;5028699;28;20048;-63
2022/09/14 09:41:04;;;;;;;8.80;1.30;;;20.70;93.50;;;;;;5030717;28;20060;-63
2022/09/14 09:43:29;;;;;;;4.20;1.30;;;20.70;99.90;;;;;;5029087;28;20048;-63
2022/09/14 09:45:59;;;;;;;5.97;1.33;;;20.70;99.90;;;;;;5029916;28;20037;-63
2022/09/14 09:48:41;;;;;;;5.45;1.40;;;20.80;99.90;;;;;;5031551;28;20537;-63
2022/09/14 09:51:17;;;;;;;5.53;1.20;;;20.70;65.50;;;;;;5029191;28;20120;-64
2022/09/14 09:53:52;;;;;;;6.25;1.35;;;20.70;37.20;;;;;;5029788;28;20080;-64
2022/09/14 09:56:27;;;;;;;5.43;0.95;;;20.60;1.00;;;;;;5027797;28;20048;-64
2022/09/14 09:58:53;;;;;;;6.18;1.42;;;20.70;1.00;;;;;;5028993;28;20041;-64
2022/09/14 10:01:20;;;;;;;5.55;1.58;;;20.70;1.00;;;;;;5007433;28;20041;-64
2022/09/14 10:04:18;;;;;;;7.57;1.17;;;20.70;1.00;;;;;;5028133;28;20033;-64
2022/09/14 10:06:49;;;;;;;5.60;1.30;;;20.70;1.00;;;;;;5024240;28;20033;-64
2022/09/14 10:09:22;;;;;;;7.95;1.08;;;20.80;1.00;;;;;;5027147;28;20060;-64
2022/09/14 10:11:59;;;;;;;7.72;1.42;;;20.80;1.00;;;;;;5029032;28;20062;-64
2022/09/14 10:14:33;;;;;;;6.93;1.30;;;20.80;1.00;;;;;;5027992;28;20037;-64
2022/09/14 10:17:22;;;;;;;6.00;1.80;;;20.80;1.00;;;;;;5029476;28;20041;-64
2022/09/14 10:19:53;;;;;;;4.97;1.20;;;20.70;1.00;;;;;;5025398;28;20073;-64
2022/09/14 10:22:26;;;;;;;8.65;1.52;;;20.70;1.00;;;;;;5028886;28;20049;-64
2022/09/14 10:25:14;;;;;;;9.50;1.60;;;20.80;99.90;;;;;;5028955;28;20048;-64
2022/09/14 10:27:54;;;;;;;5.47;1.30;;;20.60;99.90;;;;;;5026576;28;20040;-64
2022/09/14 10:30:40;;;;;;;9.80;1.42;;;20.60;99.90;;;;;;5027467;28;20044;-64
2022/09/14 10:33:11;;;;;;;7.55;1.17;;;20.60;99.90;;;;;;5030638;28;20038;-64
2022/09/14 10:35:40;;;;;;;7.82;1.30;;;20.50;99.90;;;;;;5028997;28;20045;-64
2022/09/14 10:38:42;;;;;;;6.88;1.38;;;20.40;99.90;;;;;;5025757;28;20042;-64
2022/09/14 10:41:29;;;;;;;6.28;1.25;;;20.50;99.90;;;;;;5027266;28;20050;-64
2022/09/14 10:44:18;;;;;;;3.95;1.25;;;20.50;99.90;;;;;;5029782;28;20051;-64
2022/09/14 10:46:59;;;;;;;6.60;1.50;;;20.50;99.90;;;;;;5029699;28;20046;-64
2022/09/14 10:50:01;;;;;;;6.15;1.30;;;20.50;99.90;;;;;;5029159;28;20041;-64
2022/09/14 10:52:45;;;;;;;6.72;1.63;;;20.60;99.90;;;;;;5027372;28;20065;-63
2022/09/14 10:55:13;;;;;;;4.53;1.52;;;20.70;99.90;;;;;;5026834;28;20033;-64
2022/09/14 10:58:03;;;;;;;4.70;1.33;;;20.80;99.90;;;;;;5029558;28;20037;-64
2022/09/14 11:00:35;;;;;;;7.05;1.30;;;21.00;99.90;;;;;;5024706;28;20372;-64
2022/09/14 11:03:01;;;;;;;7.07;1.23;;;21.10;99.90;;;;;;5027770;28;20091;-64
2022/09/14 11:05:36;;;;;;;6.38;1.40;;;21.30;99.90;;;;;;5025748;28;20080;-64
2022/09/14 11:08:39;;;;;;;3.87;1.27;;;21.50;99.90;;;;;;5026091;28;20140;-64
2022/09/14 11:11:23;;;;;;;5.07;1.38;;;21.50;99.90;;;;;;5016814;28;21293;-64
2022/09/14 11:14:01;;;;;;;9.23;1.55;;;21.30;99.90;;;;;;5026542;28;20566;-63
2022/09/14 11:17:07;;;;;;;9.45;1.52;;;21.30;99.90;;;;;;5029585;28;20175;-63
2022/09/14 11:19:52;;;;;;;9.95;1.65;;;21.10;67.60;;;;;;5020374;28;20112;-64
2022/09/14 11:22:37;;;;;;;;;;;21.00;99.90;;;;;;5026241;28;20049;-63
2022/09/14 11:25:19;;;;;;;6.38;1.20;;;21.00;99.90;;;;;;5027773;28;20380;-63
2022/09/14 11:27:55;;;;;;;7.82;1.45;;;20.90;99.90;;;;;;5028295;28;20045;-64
2022/09/14 11:30:33;;;;;;;7.47;1.40;;;20.90;99.90;;;;;;5028482;28;20120;-63
2022/09/14 11:33:20;;;;;;;5.93;1.27;;;20.90;99.90;;;;;;5030164;28;20041;-63
2022/09/14 11:36:10;;;;;;;5.70;1.40;;;20.90;99.90;;;;;;5028304;28;20052;-63
2022/09/14 11:38:42;;;;;;;10.23;1.23;;;21.00;99.90;;;;;;5012520;28;20535;-63
2022/09/14 11:41:29;;;;;;;9.65;1.42;;;21.30;99.90;;;;;;5030135;28;20048;-64
2022/09/14 11:44:10;;;;;;;6.88;1.42;;;21.20;99.90;;;;;;5026237;28;20041;-64
2022/09/14 11:46:41;;;;;;;4.38;1.10;;;21.20;99.90;;;;;;5019405;28;20509;-63
2022/09/14 11:49:26;;;;;;;8.48;1.38;;;21.30;99.90;;;;;;5032478;28;20486;-63
2022/09/14 11:51:57;;;;;;;6.93;1.33;;;21.40;99.90;;;;;;5024299;28;20041;-63
2022/09/14 11:54:24;;;;;;;3.28;0.98;;;21.30;46.10;;;;;;5025664;28;20038;-63
2022/09/14 11:57:00;;;;;;;7.32;1.63;;;21.30;1.00;;;;;;5029464;28;20044;-63
2022/09/14 11:59:40;;;;;;;;;;;21.20;1.00;;;;;;5030500;28;20049;-64
2022/09/14 12:02:24;;;;;;;9.77;1.50;;;21.00;1.00;;;;;;5032895;28;20329;-64
2022/09/14 12:05:09;;;;;;;8.85;1.10;;;21.00;1.00;;;;;;5033586;28;20041;-64
2022/09/14 12:07:46;;;;;;;7.13;1.30;;;20.90;1.00;;;;;;5028028;28;20049;-63
2022/09/14 12:10:15;;;;;;;9.93;1.35;;;20.90;1.00;;;;;;5011783;28;20127;-63
2022/09/14 12:12:53;;;;;;;5.93;1.40;;;20.70;1.00;;;;;;5029866;28;20077;-63
2022/09/14 12:15:24;;;;;;;12.38;1.50;;;20.60;1.00;;;;;;5029556;28;20037;-63
2022/09/14 12:18:04;;;;;;;7.00;1.40;;;20.60;1.00;;;;;;5029844;28;20034;-63
2022/09/14 12:20:43;;;;;;;10.32;1.77;;;20.60;1.00;;;;;;5014913;28;20120;-63
2022/09/14 12:23:23;;;;;;;5.60;1.10;;;20.60;57.00;;;;;;5031427;28;20040;-63
2022/09/14 12:26:09;;;;;;;9.38;1.40;;;20.60;32.80;;;;;;5032529;28;20053;-63
2022/09/14 12:28:35;;;;;;;6.13;1.40;;;20.70;53.30;;;;;;5029649;28;20483;-63
2022/09/14 12:31:03;;;;;;;4.82;1.17;;;20.60;1.00;;;;;;5028255;28;20049;-63
2022/09/14 12:33:32;;;;;;;4.65;1.08;;;20.60;1.00;;;;;;5031803;28;20061;-63
2022/09/14 12:36:28;;;;;;;7.82;1.33;;;20.60;26.20;;;;;;5032268;28;20041;-63
2022/09/14 12:38:56;;;;;;;8.53;1.37;;;20.60;1.00;;;;;;5032035;28;20091;-63
2022/09/14 12:41:21;;;;;;;6.55;1.00;;;20.60;1.00;;;;;;5012603;28;20435;-63
2022/09/14 12:43:50;;;;;;;10.60;1.20;;;20.70;1.00;;;;;;5015293;28;20090;-63
2022/09/14 12:46:19;;;;;;;5.63;1.30;;;20.70;1.00;;;;;;5030721;28;20102;-63
2022/09/14 12:48:47;;;;;;;5.40;1.05;;;20.70;1.00;;;;;;5013495;28;20434;-63
2022/09/14 12:51:41;;;;;;;5.03;1.10;;;20.70;1.00;;;;;;5028765;28;20049;-63
2022/09/14 12:54:06;;;;;;;4.38;1.00;;;20.70;1.00;;;;;;5028717;28;20376;-63
2022/09/14 12:56:44;;;;;;;9.70;1.10;;;20.70;1.00;;;;;;5014347;28;20113;-63
2022/09/14 12:59:28;;;;;;;6.40;1.15;;;20.70;1.00;;;;;;5014535;28;20121;-63
2022/09/14 13:02:31;;;;;;;4.13;1.00;;;20.90;8.60;;;;;;5032134;28;20095;-63
2022/09/14 13:04:58;;;;;;;4.15;1.00;;;21.00;1.00;;;;;;5028661;28;20048;-63
2022/09/14 13:07:31;;;;;;;6.43;1.05;;;21.00;3.10;;;;;;5031577;28;20037;-64
2022/09/14 13:09:59;;;;;;;4.95;0.90;;;21.00;1.00;;;;;;5029193;28;20586;-65
2022/09/14 13:12:39;;;;;;;5.43;1.20;;;21.00;1.00;;;;;;5028028;28;20030;-63